createdAt,value
2023-04-08T00:00:28.145Z,5.70
2023-04-08T00:02:54.936Z,5.80
2023-04-08T00:05:21.859Z,4.75
2023-04-08T00:07:48.748Z,5.00
2023-04-08T00:10:15.554Z,4.63
2023-04-08T00:12:42.234Z,4.35
2023-04-08T00:15:09.396Z,4.80
2023-04-08T00:17:36.389Z,4.10
2023-04-08T00:20:03.364Z,5.07
2023-04-08T00:22:30.256Z,4.95
2023-04-08T00:24:58.166Z,7.35
2023-04-08T00:27:27.604Z,9.13
2023-04-08T00:29:54.380Z,8.18
2023-04-08T00:32:21.591Z,7.85
2023-04-08T00:34:48.519Z,7.38
2023-04-08T00:37:15.544Z,6.30
2023-04-08T00:39:42.383Z,6.03
2023-04-08T00:42:09.879Z,5.30
2023-04-08T00:44:36.624Z,4.88
2023-04-08T00:47:04.264Z,5.05
2023-04-08T00:49:32.137Z,4.43
2023-04-08T00:52:00.529Z,4.47
2023-04-08T00:54:27.271Z,5.43
2023-04-08T00:56:54.061Z,3.97
2023-04-08T00:59:21.029Z,5.85
2023-04-08T01:01:57.573Z,5.20
2023-04-08T01:04:33.909Z,6.55
2023-04-08T01:07:06.544Z,6.88
2023-04-08T01:09:38.258Z,7.10
2023-04-08T01:12:08.136Z,9.52
2023-04-08T01:14:42.412Z,9.85
2023-04-08T01:17:09.921Z,8.80
2023-04-08T01:19:39.838Z,8.55
2023-04-08T01:22:29.265Z,8.35
2023-04-08T01:25:02.858Z,7.47
2023-04-08T01:27:31.905Z,7.25
2023-04-08T01:30:01.806Z,7.93
2023-04-08T01:32:32.863Z,8.00
2023-04-08T01:35:01.530Z,8.00
2023-04-08T01:37:30.605Z,8.55
2023-04-08T01:39:59.084Z,8.95
2023-04-08T01:42:28.687Z,8.05
2023-04-08T01:44:57.568Z,8.55
2023-04-08T01:47:25.709Z,8.05
2023-04-08T01:49:53.084Z,8.10
2023-04-08T01:52:22.607Z,8.40
2023-04-08T01:54:49.564Z,8.85
2023-04-08T01:57:27.410Z,8.07
2023-04-08T02:00:00.707Z,7.70
2023-04-08T02:02:28.716Z,7.05
2023-04-08T02:04:55.815Z,8.20
2023-04-08T02:07:22.578Z,7.75
2023-04-08T02:09:50.411Z,7.80
2023-04-08T02:12:17.631Z,6.57
2023-04-08T02:14:44.571Z,6.53
2023-04-08T02:17:24.853Z,5.75
2023-04-08T02:20:01.068Z,5.80
2023-04-08T02:22:46.312Z,5.50
2023-04-08T02:25:17.270Z,5.28
2023-04-08T02:27:47.217Z,5.80
2023-04-08T02:30:15.718Z,5.40
2023-04-08T02:32:43.911Z,5.25
2023-04-08T02:35:12.777Z,5.15
2023-04-08T02:37:39.694Z,5.18
2023-04-08T02:40:24.214Z,4.28
2023-04-08T02:42:51.525Z,4.78
2023-04-08T02:45:18.715Z,4.90
2023-04-08T02:47:45.633Z,5.90
2023-04-08T02:50:12.398Z,5.13
2023-04-08T02:52:39.365Z,5.63
2023-04-08T02:55:09.798Z,6.55
2023-04-08T02:57:41.055Z,6.45
2023-04-08T03:00:08.596Z,6.88
2023-04-08T03:02:36.053Z,8.65
2023-04-08T03:05:04.304Z,8.45
2023-04-08T03:07:31.635Z,9.00
2023-04-08T03:09:58.716Z,10.32
2023-04-08T03:12:27.665Z,9.90
2023-04-08T03:14:54.908Z,9.05
2023-04-08T03:17:21.865Z,8.07
2023-04-08T03:19:48.625Z,7.65
2023-04-08T03:22:15.537Z,7.78
2023-04-08T03:24:42.416Z,6.43
2023-04-08T03:27:09.179Z,6.53
2023-04-08T03:29:35.996Z,5.93
2023-04-08T03:32:02.974Z,6.03
2023-04-08T03:34:29.754Z,5.38
2023-04-08T03:36:56.472Z,5.53
2023-04-08T03:39:23.203Z,5.25
2023-04-08T03:41:49.845Z,5.28
2023-04-08T03:44:19.852Z,5.15
2023-04-08T03:46:46.589Z,5.22
2023-04-08T03:49:13.177Z,5.00
2023-04-08T03:51:39.909Z,5.05
2023-04-08T03:54:07.830Z,4.90
2023-04-08T03:56:34.697Z,5.13
2023-04-08T03:59:01.404Z,5.72
2023-04-08T04:01:29.124Z,6.20
2023-04-08T04:03:56.071Z,6.00
2023-04-08T04:06:22.959Z,6.07
2023-04-08T04:08:50.518Z,6.47
2023-04-08T04:11:17.456Z,6.53
2023-04-08T04:13:44.142Z,7.40
2023-04-08T04:16:10.866Z,6.68
2023-04-08T04:18:37.622Z,9.13
2023-04-08T04:21:07.439Z,8.80
2023-04-08T04:23:34.443Z,8.55
2023-04-08T04:26:01.369Z,7.85
2023-04-08T04:28:28.213Z,7.13
2023-04-08T04:30:56.472Z,6.85
2023-04-08T04:33:23.461Z,5.90
2023-04-08T04:35:50.337Z,5.97
2023-04-08T04:38:17.404Z,5.95
2023-04-08T04:40:45.467Z,5.95
2023-04-08T04:43:12.154Z,5.22
2023-04-08T04:45:38.816Z,5.82
2023-04-08T04:48:05.741Z,5.25
2023-04-08T04:50:32.587Z,5.43
2023-04-08T04:52:59.460Z,6.53
2023-04-08T04:55:26.596Z,6.05
2023-04-08T04:57:53.327Z,5.78
2023-04-08T05:00:20.197Z,6.55
2023-04-08T05:02:47.075Z,7.47
2023-04-08T05:05:14.020Z,7.07
2023-04-08T05:07:41.009Z,6.78
2023-04-08T05:10:07.958Z,6.50
2023-04-08T05:12:34.761Z,6.80
2023-04-08T05:15:02.270Z,6.68
2023-04-08T05:17:29.087Z,6.30
2023-04-08T05:19:55.755Z,7.32
2023-04-08T05:22:22.525Z,6.57
2023-04-08T05:24:49.387Z,6.75
2023-04-08T05:27:16.185Z,7.38
2023-04-08T05:29:42.891Z,7.07
2023-04-08T05:32:09.590Z,6.85
2023-04-08T05:34:36.185Z,8.55
2023-04-08T05:37:02.891Z,7.65
2023-04-08T05:39:29.680Z,7.07
2023-04-08T05:41:56.431Z,7.88
2023-04-08T05:44:23.300Z,8.38
2023-04-08T05:46:50.278Z,8.90
2023-04-08T05:49:17.559Z,9.02
2023-04-08T05:51:44.481Z,8.18
2023-04-08T05:54:11.209Z,9.25
2023-04-08T05:56:37.972Z,10.23
2023-04-08T05:59:04.893Z,10.15
2023-04-08T06:01:31.967Z,10.95
2023-04-08T06:03:58.813Z,10.43
2023-04-08T06:06:26.108Z,11.00
2023-04-08T06:08:52.910Z,11.55
2023-04-08T06:11:19.739Z,10.32
2023-04-08T06:13:46.450Z,11.05
2023-04-08T06:16:14.753Z,12.38
2023-04-08T06:18:41.581Z,9.93
2023-04-08T06:21:08.427Z,10.43
2023-04-08T06:23:35.048Z,11.52
2023-04-08T06:26:02.037Z,11.27
2023-04-08T06:28:32.386Z,11.38
2023-04-08T06:30:59.646Z,11.57
2023-04-08T06:33:26.243Z,10.95
2023-04-08T06:36:02.810Z,10.57
2023-04-08T06:38:29.919Z,10.75
2023-04-08T06:40:56.663Z,11.52
2023-04-08T06:43:23.477Z,11.77
2023-04-08T06:45:50.202Z,11.48
2023-04-08T06:48:16.904Z,11.02
2023-04-08T06:50:44.153Z,9.82
2023-04-08T06:53:11.076Z,11.05
2023-04-08T06:55:37.706Z,11.02
2023-04-08T06:58:04.502Z,10.85
2023-04-08T07:00:31.498Z,10.15
2023-04-08T07:02:58.235Z,11.82
2023-04-08T07:05:25.091Z,11.52
2023-04-08T07:07:52.036Z,11.75
2023-04-08T07:10:18.846Z,12.85
2023-04-08T07:12:45.563Z,11.85
2023-04-08T07:15:12.154Z,11.95
2023-04-08T07:17:39.569Z,11.93
2023-04-08T07:20:07.117Z,11.55
2023-04-08T07:22:33.828Z,11.93
2023-04-08T07:25:00.454Z,12.88
2023-04-08T07:27:27.414Z,11.68
2023-04-08T07:29:54.809Z,11.80
2023-04-08T07:32:21.980Z,10.82
2023-04-08T07:34:48.764Z,10.73
2023-04-08T07:37:15.532Z,12.25
2023-04-08T07:39:42.091Z,11.05
2023-04-08T07:42:08.980Z,11.20
2023-04-08T07:44:35.801Z,12.32
2023-04-08T07:47:02.499Z,12.75
2023-04-08T07:49:29.126Z,10.63
2023-04-08T07:51:55.979Z,9.48
2023-04-08T07:54:22.906Z,10.45
2023-04-08T07:56:50.335Z,9.15
2023-04-08T07:59:17.551Z,8.50
2023-04-08T08:01:44.430Z,7.22
2023-04-08T08:04:11.272Z,9.13
2023-04-08T08:06:38.073Z,8.88
2023-04-08T08:09:05.209Z,9.15
2023-04-08T08:11:33.183Z,8.75
2023-04-08T08:13:59.758Z,8.50
2023-04-08T08:16:29.908Z,8.30
2023-04-08T08:18:56.732Z,7.63
2023-04-08T08:21:23.734Z,7.70
2023-04-08T08:23:52.596Z,7.15
2023-04-08T08:26:19.336Z,8.43
2023-04-08T08:28:46.271Z,8.25
2023-04-08T08:31:13.603Z,6.85
2023-04-08T08:33:40.395Z,6.25
2023-04-08T08:36:07.408Z,6.50
2023-04-08T08:38:34.275Z,6.53
2023-04-08T08:41:01.978Z,5.60
2023-04-08T08:43:29.260Z,5.57
2023-04-08T08:45:55.910Z,6.10
2023-04-08T08:48:22.729Z,6.18
2023-04-08T08:50:49.432Z,5.88
2023-04-08T08:53:16.191Z,5.53
2023-04-08T08:58:12.770Z,4.45
2023-04-08T09:00:44.890Z,3.53
2023-04-08T09:03:22.286Z,2.97
2023-04-08T09:05:53.196Z,2.60
2023-04-08T09:08:27.376Z,3.50
2023-04-08T09:10:56.344Z,2.28
2023-04-08T09:13:26.347Z,2.50
2023-04-08T09:16:07.633Z,2.60
2023-04-08T09:18:34.842Z,3.20
2023-04-08T09:21:04.930Z,2.83
2023-04-08T09:23:45.092Z,2.28
2023-04-08T09:26:24.138Z,2.00
2023-04-08T09:29:26.103Z,2.28
2023-04-08T09:31:56.003Z,1.95
2023-04-08T09:34:23.494Z,1.88
2023-04-08T09:36:51.438Z,2.60
2023-04-08T09:39:18.579Z,2.10
2023-04-08T09:41:49.052Z,1.60
2023-04-08T09:44:17.202Z,1.90
2023-04-08T09:47:06.923Z,2.13
2023-04-08T09:49:54.953Z,1.80
2023-04-08T09:52:27.911Z,1.10
2023-04-08T09:55:05.906Z,1.48
2023-04-08T09:57:47.897Z,0.93
2023-04-08T10:00:16.593Z,0.98
2023-04-08T10:02:58.980Z,0.73
2023-04-08T10:05:27.171Z,0.90
2023-04-08T10:07:56.358Z,1.00
2023-04-08T10:10:23.884Z,1.17
2023-04-08T10:12:51.318Z,1.25
2023-04-08T10:15:25.081Z,1.58
2023-04-08T10:17:53.470Z,1.30
2023-04-08T10:20:38.712Z,1.58
2023-04-08T10:23:10.057Z,1.13
2023-04-08T10:25:43.561Z,1.50
2023-04-08T10:28:13.559Z,1.15
2023-04-08T10:30:40.315Z,0.95
2023-04-08T10:33:13.435Z,1.40
2023-04-08T10:35:48.390Z,1.10
2023-04-08T10:38:16.859Z,0.77
2023-04-08T10:40:44.572Z,0.60
2023-04-08T10:43:12.982Z,0.70
2023-04-08T10:45:41.237Z,1.10
2023-04-08T10:48:18.341Z,0.90
2023-04-08T10:50:56.258Z,0.55
2023-04-08T10:53:37.835Z,0.70
2023-04-08T10:56:11.147Z,0.50
2023-04-08T10:58:48.627Z,0.50
2023-04-08T11:01:15.533Z,0.68
2023-04-08T11:03:43.297Z,1.00
2023-04-08T11:06:10.274Z,0.80
2023-04-08T11:08:37.152Z,1.15
2023-04-08T11:11:09.040Z,1.02
2023-04-08T11:13:37.232Z,1.00
2023-04-08T11:16:17.116Z,0.70
2023-04-08T11:18:46.219Z,0.95
2023-04-08T11:21:13.117Z,0.90
2023-04-08T11:23:39.936Z,0.60
2023-04-08T11:26:07.011Z,0.70
2023-04-08T11:28:35.576Z,0.70
2023-04-08T11:31:05.928Z,0.50
2023-04-08T11:33:33.260Z,0.70
2023-04-08T11:36:01.979Z,0.77
2023-04-08T11:38:29.301Z,0.90
2023-04-08T11:40:59.932Z,0.60
2023-04-08T11:43:27.122Z,0.60
2023-04-08T11:45:53.910Z,0.60
2023-04-08T11:48:21.376Z,0.70
2023-04-08T11:50:48.133Z,0.65
2023-04-08T11:53:22.152Z,0.80
2023-04-08T11:55:49.254Z,0.70
2023-04-08T11:58:15.980Z,1.08
2023-04-08T12:00:43.823Z,1.48
2023-04-08T12:03:11.506Z,1.23
2023-04-08T12:05:38.525Z,1.40
2023-04-08T12:08:05.504Z,1.17
2023-04-08T12:10:32.949Z,1.52
2023-04-08T12:12:59.711Z,1.70
2023-04-08T12:15:26.621Z,1.17
2023-04-08T12:17:53.322Z,1.00
2023-04-08T12:20:20.282Z,1.15
2023-04-08T12:22:47.078Z,1.10
2023-04-08T12:25:13.843Z,1.27
2023-04-08T12:27:40.544Z,1.38
2023-04-08T12:30:08.087Z,1.45
2023-04-08T12:32:34.875Z,1.48
2023-04-08T12:35:01.671Z,1.30
2023-04-08T12:37:28.741Z,1.70
2023-04-08T12:39:55.640Z,1.52
2023-04-08T12:42:22.299Z,2.85
2023-04-08T12:44:49.066Z,2.38
2023-04-08T12:47:15.929Z,1.92
2023-04-08T12:49:49.370Z,2.83
2023-04-08T12:52:17.434Z,3.58
2023-04-08T12:54:44.484Z,2.95
2023-04-08T12:57:11.252Z,3.33
2023-04-08T12:59:39.958Z,2.80
2023-04-08T13:02:07.738Z,2.55
2023-04-08T13:04:35.048Z,2.58
2023-04-08T13:07:02.486Z,2.67
2023-04-08T13:09:30.728Z,3.15
2023-04-08T13:11:58.437Z,4.10
2023-04-08T13:14:25.653Z,3.88
2023-04-08T13:16:52.563Z,4.50
2023-04-08T13:19:19.338Z,4.03
2023-04-08T13:21:46.398Z,3.72
2023-04-08T13:24:13.284Z,4.30
2023-04-08T13:26:40.402Z,4.22
2023-04-08T13:29:07.190Z,4.60
2023-04-08T13:31:33.954Z,4.32
2023-04-08T13:34:00.997Z,4.32
2023-04-08T13:36:29.222Z,4.28
2023-04-08T13:38:56.630Z,4.47
2023-04-08T13:41:23.600Z,4.88
2023-04-08T13:43:50.583Z,4.53
2023-04-08T13:46:18.186Z,4.97
2023-04-08T13:48:46.336Z,4.50
2023-04-08T13:51:13.248Z,4.85
2023-04-08T13:53:39.886Z,4.70
2023-04-08T13:56:06.968Z,4.03
2023-04-08T13:58:33.680Z,4.50
2023-04-08T14:01:00.405Z,4.40
2023-04-08T14:03:28.049Z,4.00
2023-04-08T14:05:54.910Z,4.30
2023-04-08T14:08:25.459Z,3.95
2023-04-08T14:10:53.532Z,3.45
2023-04-08T14:13:20.388Z,4.07
2023-04-08T14:15:48.128Z,4.72
2023-04-08T14:18:17.400Z,4.90
2023-04-08T14:20:44.374Z,4.25
2023-04-08T14:23:11.588Z,4.20
2023-04-08T14:25:38.492Z,4.60
2023-04-08T14:28:05.214Z,4.43
2023-04-08T14:30:32.143Z,4.25
2023-04-08T14:33:01.021Z,4.13
2023-04-08T14:35:27.994Z,3.95
2023-04-08T14:37:54.646Z,3.22
2023-04-08T14:40:21.519Z,3.75
2023-04-08T14:42:49.959Z,3.17
2023-04-08T14:45:16.891Z,3.85
2023-04-08T14:47:43.697Z,3.15
2023-04-08T14:50:10.798Z,3.00
2023-04-08T14:52:37.527Z,3.38
2023-04-08T14:55:04.563Z,3.50
2023-04-08T14:57:32.060Z,3.17
2023-04-08T14:59:59.502Z,3.35
2023-04-08T15:02:26.360Z,2.60
2023-04-08T15:04:53.192Z,2.97
2023-04-08T15:07:20.035Z,2.97
2023-04-08T15:09:46.807Z,3.03
2023-04-08T15:12:13.766Z,2.83
2023-04-08T15:14:40.773Z,3.10
2023-04-08T15:17:07.527Z,2.80
2023-04-08T15:19:34.296Z,2.85
2023-04-08T15:22:01.145Z,2.97
2023-04-08T15:24:27.987Z,2.95
2023-04-08T15:26:54.936Z,2.47
2023-04-08T15:29:24.913Z,2.70
2023-04-08T15:31:52.620Z,3.00
2023-04-08T15:34:19.402Z,2.38
2023-04-08T15:36:47.470Z,2.92
2023-04-08T15:39:14.826Z,2.45
2023-04-08T15:41:41.539Z,2.28
2023-04-08T15:44:08.390Z,2.80
2023-04-08T15:46:37.334Z,2.53
2023-04-08T15:49:04.651Z,2.60
2023-04-08T15:51:32.245Z,2.75
2023-04-08T15:53:59.053Z,2.22
2023-04-08T15:56:27.107Z,2.10
2023-04-08T15:58:54.193Z,3.08
2023-04-08T16:01:21.442Z,2.60
2023-04-08T16:03:48.643Z,1.20
2023-04-08T16:06:17.959Z,1.27
2023-04-08T16:08:50.808Z,2.10
2023-04-08T16:11:18.701Z,2.90
2023-04-08T16:13:49.615Z,2.05
2023-04-08T16:16:20.194Z,1.65
2023-04-08T16:18:49.908Z,0.70
2023-04-08T16:21:22.550Z,0.52
2023-04-08T16:23:52.572Z,0.32
2023-04-08T16:26:23.159Z,0.13
2023-04-08T16:28:53.927Z,0.20
2023-04-08T16:31:20.767Z,0.32
2023-04-08T16:33:47.541Z,0.25
2023-04-08T16:36:15.036Z,0.20
2023-04-08T16:38:42.036Z,0.30
2023-04-08T16:41:10.148Z,0.30
2023-04-08T16:43:37.893Z,0.40
2023-04-08T16:46:16.134Z,0.50
2023-04-08T16:48:44.035Z,0.22
2023-04-08T16:51:11.686Z,0.25
2023-04-08T16:53:38.751Z,0.30
2023-04-08T16:56:05.780Z,0.40
2023-04-08T16:58:32.580Z,0.47
2023-04-08T17:00:59.410Z,1.10
2023-04-08T17:03:27.182Z,0.70
2023-04-08T17:05:54.036Z,0.57
2023-04-08T17:08:21.351Z,1.60
2023-04-08T17:10:49.661Z,1.00
2023-04-08T17:13:16.813Z,0.40
2023-04-08T17:15:43.533Z,0.30
2023-04-08T17:18:10.580Z,0.50
2023-04-08T17:20:37.575Z,0.60
2023-04-08T17:23:05.175Z,0.20
2023-04-08T17:25:33.469Z,0.38
2023-04-08T17:28:00.162Z,0.40
2023-04-08T17:30:27.295Z,0.30
2023-04-08T17:32:54.058Z,0.35
2023-04-08T17:35:20.760Z,0.30
2023-04-08T17:37:48.415Z,0.40
2023-04-08T17:40:15.261Z,0.40
2023-04-08T17:42:42.020Z,0.40
2023-04-08T17:45:09.300Z,0.30
2023-04-08T17:47:36.288Z,0.40
2023-04-08T17:50:03.093Z,0.30
2023-04-08T17:52:29.794Z,0.30
2023-04-08T17:54:56.626Z,0.40
2023-04-08T17:57:23.346Z,0.73
2023-04-08T17:59:50.056Z,0.30
2023-04-08T18:02:16.932Z,0.40
2023-04-08T18:04:43.770Z,0.25
2023-04-08T18:07:10.572Z,0.55
2023-04-08T18:09:37.195Z,0.60
2023-04-08T18:12:03.927Z,0.45
2023-04-08T18:14:30.773Z,0.70
2023-04-08T18:16:57.609Z,1.45
2023-04-08T18:19:26.270Z,1.30
2023-04-08T18:21:53.445Z,0.70
2023-04-08T18:24:21.354Z,0.60
2023-04-08T18:26:54.312Z,1.10
2023-04-08T18:29:24.662Z,0.93
2023-04-08T18:31:51.278Z,1.33
2023-04-08T18:34:18.634Z,1.70
2023-04-08T18:36:46.325Z,1.92
2023-04-08T18:39:13.772Z,2.67
2023-04-08T18:41:40.700Z,3.05
2023-04-08T18:44:07.706Z,2.67
2023-04-08T18:46:34.490Z,1.50
2023-04-08T18:49:01.295Z,1.38
2023-04-08T18:51:28.762Z,0.95
2023-04-08T18:53:55.513Z,1.35
2023-04-08T18:56:22.272Z,1.50
2023-04-08T18:58:49.733Z,1.23
2023-04-08T19:01:16.829Z,1.55
2023-04-08T19:03:43.697Z,1.92
2023-04-08T19:06:12.611Z,2.42
2023-04-08T19:08:39.802Z,2.88
2023-04-08T19:11:06.513Z,1.88
2023-04-08T19:13:33.336Z,2.15
2023-04-08T19:16:00.130Z,7.63
2023-04-08T19:18:26.935Z,10.77
2023-04-08T19:20:54.221Z,7.72
2023-04-08T19:23:21.179Z,4.68
2023-04-08T19:25:47.974Z,3.95
2023-04-08T19:28:14.768Z,4.60
2023-04-08T19:30:41.588Z,4.22
2023-04-08T19:33:08.931Z,3.85
2023-04-08T19:35:35.711Z,2.70
2023-04-08T19:38:03.225Z,1.88
2023-04-08T19:40:29.934Z,1.85
2023-04-08T19:42:57.053Z,1.80
2023-04-08T19:45:23.781Z,1.15
2023-04-08T19:47:50.617Z,1.33
2023-04-08T19:50:17.244Z,1.52
2023-04-08T19:52:43.943Z,1.00
2023-04-08T19:55:10.933Z,1.50
2023-04-08T19:57:37.783Z,1.30
2023-04-08T20:00:04.787Z,1.25
2023-04-08T20:02:33.367Z,1.60
2023-04-08T20:05:01.139Z,1.20
2023-04-08T20:07:28.027Z,1.50
2023-04-08T20:09:54.682Z,1.85
2023-04-08T20:12:21.680Z,7.05
2023-04-08T20:14:48.987Z,12.57
2023-04-08T20:17:17.937Z,13.45
2023-04-08T20:19:44.661Z,13.85
2023-04-08T20:22:11.662Z,13.95
2023-04-08T20:24:38.342Z,15.52
2023-04-08T20:27:05.208Z,15.13
2023-04-08T20:29:32.366Z,15.80
2023-04-08T20:31:59.412Z,15.20
2023-04-08T20:34:26.496Z,16.00
2023-04-08T20:36:53.299Z,15.20
2023-04-08T20:39:20.095Z,16.23
2023-04-08T20:41:47.174Z,15.32
2023-04-08T20:44:13.952Z,15.23
2023-04-08T20:46:41.229Z,15.05
2023-04-08T20:49:08.170Z,15.30
2023-04-08T20:51:34.922Z,15.60
2023-04-08T20:54:01.603Z,14.65
2023-04-08T20:56:28.489Z,13.75
2023-04-08T20:58:56.867Z,14.75
2023-04-08T21:01:25.917Z,14.23
2023-04-08T21:03:52.937Z,12.70
2023-04-08T21:06:20.573Z,13.20
2023-04-08T21:08:48.161Z,11.60
2023-04-08T21:11:15.638Z,12.27
2023-04-08T21:13:42.676Z,13.20
2023-04-08T21:16:09.522Z,12.85
2023-04-08T21:18:39.053Z,11.68
2023-04-08T21:21:06.168Z,11.98
2023-04-08T21:23:32.815Z,12.68
2023-04-08T21:26:01.372Z,11.15
2023-04-08T21:28:29.399Z,11.30
2023-04-08T21:30:56.610Z,10.75
2023-04-08T21:33:23.403Z,11.43
2023-04-08T21:35:50.127Z,12.05
2023-04-08T21:38:16.917Z,11.25
2023-04-08T21:40:43.817Z,11.35
2023-04-08T21:43:10.575Z,10.82
2023-04-08T21:45:37.460Z,10.73
2023-04-08T21:48:04.477Z,10.18
2023-04-08T21:50:32.361Z,11.45
2023-04-08T21:52:59.211Z,10.15
2023-04-08T21:55:25.961Z,11.85
2023-04-08T21:57:52.683Z,10.27
2023-04-08T22:00:19.383Z,11.25
2023-04-08T22:02:46.282Z,10.68
2023-04-08T22:05:13.142Z,9.65
2023-04-08T22:07:39.856Z,10.90
2023-04-08T22:10:07.459Z,10.88
2023-04-08T22:12:34.319Z,10.15
2023-04-08T22:15:01.084Z,10.43
2023-04-08T22:17:28.058Z,10.35
2023-04-08T22:19:54.846Z,9.85
2023-04-08T22:22:21.641Z,10.02
2023-04-08T22:24:48.470Z,9.98
2023-04-08T22:27:15.458Z,10.27
2023-04-08T22:29:42.190Z,9.35
2023-04-08T22:32:09.020Z,7.68
2023-04-08T22:34:36.232Z,8.63
2023-04-08T22:37:03.014Z,9.35
2023-04-08T22:39:29.820Z,8.00
2023-04-08T22:41:57.429Z,8.40
2023-04-08T22:44:24.098Z,7.38
2023-04-08T22:46:51.856Z,6.68
2023-04-08T22:49:18.547Z,7.25
2023-04-08T22:51:45.274Z,6.63
2023-04-08T22:54:12.033Z,7.10
2023-04-08T22:56:38.729Z,6.20
2023-04-08T22:59:05.664Z,6.70
2023-04-08T23:01:32.694Z,7.15
2023-04-08T23:03:59.546Z,6.38
2023-04-08T23:06:27.391Z,6.97
2023-04-08T23:08:54.111Z,6.60
2023-04-08T23:11:21.299Z,6.68
2023-04-08T23:13:47.995Z,7.25
2023-04-08T23:16:14.823Z,7.38
2023-04-08T23:18:41.553Z,6.75
2023-04-08T23:21:08.184Z,6.72
2023-04-08T23:23:34.935Z,6.80
2023-04-08T23:26:01.708Z,6.63
2023-04-08T23:28:28.647Z,6.70
2023-04-08T23:30:55.440Z,6.25
2023-04-08T23:33:22.085Z,6.63
2023-04-08T23:35:48.805Z,7.18
2023-04-08T23:38:15.611Z,5.97
2023-04-08T23:40:42.402Z,5.97
2023-04-08T23:43:09.134Z,6.35
2023-04-08T23:45:35.900Z,5.15
2023-04-08T23:48:02.612Z,5.88
2023-04-08T23:50:29.300Z,5.10
2023-04-08T23:52:56.104Z,6.13
2023-04-08T23:55:22.818Z,6.88
2023-04-08T23:57:50.749Z,7.75
